sensor_id;sensor_type;location;lat;lon;timestamp;pressure;altitude;pressure_sealevel;temperature
71081;BMP180;58740;50.672;18.690;2023-02-01T00:01:12;98238.80;;;3.00
71081;BMP180;58740;50.672;18.690;2023-02-01T00:03:40;98245.60;;;3.02
71081;BMP180;58740;50.672;18.690;2023-02-01T00:06:08;98259.00;;;3.10
71081;BMP180;58740;50.672;18.690;2023-02-01T00:08:36;98275.40;;;3.10
71081;BMP180;58740;50.672;18.690;2023-02-01T00:11:08;98289.40;;;3.08
71081;BMP180;58740;50.672;18.690;2023-02-01T00:13:39;98294.80;;;3.00
71081;BMP180;58740;50.672;18.690;2023-02-01T00:16:17;98291.80;;;3.00
71081;BMP180;58740;50.672;18.690;2023-02-01T00:18:49;98301.80;;;3.00
71081;BMP180;58740;50.672;18.690;2023-02-01T00:21:22;98315.60;;;2.92
71081;BMP180;58740;50.672;18.690;2023-02-01T00:23:49;98311.20;;;2.90
71081;BMP180;58740;50.672;18.690;2023-02-01T00:28:53;98305.20;;;2.90
71081;BMP180;58740;50.672;18.690;2023-02-01T00:31:21;98305.40;;;2.80
71081;BMP180;58740;50.672;18.690;2023-02-01T00:33:49;98289.60;;;2.80
71081;BMP180;58740;50.672;18.690;2023-02-01T00:36:17;98283.20;;;2.80
71081;BMP180;58740;50.672;18.690;2023-02-01T00:38:45;98277.00;;;2.78
71081;BMP180;58740;50.672;18.690;2023-02-01T00:41:19;98282.40;;;2.76
71081;BMP180;58740;50.672;18.690;2023-02-01T00:43:48;98275.00;;;2.78
71081;BMP180;58740;50.672;18.690;2023-02-01T00:46:18;98282.20;;;2.70
71081;BMP180;58740;50.672;18.690;2023-02-01T00:48:47;98284.20;;;2.70
71081;BMP180;58740;50.672;18.690;2023-02-01T00:51:19;98275.40;;;2.70
71081;BMP180;58740;50.672;18.690;2023-02-01T00:53:48;98279.80;;;2.70
71081;BMP180;58740;50.672;18.690;2023-02-01T00:56:17;98288.40;;;2.60
71081;BMP180;58740;50.672;18.690;2023-02-01T00:58:45;98296.80;;;2.60
71081;BMP180;58740;50.672;18.690;2023-02-01T01:01:21;98305.20;;;2.60
71081;BMP180;58740;50.672;18.690;2023-02-01T01:03:56;98314.20;;;2.60
71081;BMP180;58740;50.672;18.690;2023-02-01T01:06:29;98315.60;;;2.60
71081;BMP180;58740;50.672;18.690;2023-02-01T01:09:00;98324.60;;;2.60
71081;BMP180;58740;50.672;18.690;2023-02-01T01:11:33;98324.80;;;2.60
71081;BMP180;58740;50.672;18.690;2023-02-01T01:14:03;98326.00;;;2.52
71081;BMP180;58740;50.672;18.690;2023-02-01T01:16:33;98333.40;;;2.50
71081;BMP180;58740;50.672;18.690;2023-02-01T01:19:02;98335.80;;;2.50
71081;BMP180;58740;50.672;18.690;2023-02-01T01:21:30;98338.20;;;2.50
71081;BMP180;58740;50.672;18.690;2023-02-01T01:23:58;98336.00;;;2.50
71081;BMP180;58740;50.672;18.690;2023-02-01T01:26:28;98343.00;;;2.54
71081;BMP180;58740;50.672;18.690;2023-02-01T01:28:58;98342.20;;;2.50
71081;BMP180;58740;50.672;18.690;2023-02-01T01:31:28;98342.20;;;2.52
71081;BMP180;58740;50.672;18.690;2023-02-01T01:33:58;98336.40;;;2.50
71081;BMP180;58740;50.672;18.690;2023-02-01T01:36:28;98342.80;;;2.52
71081;BMP180;58740;50.672;18.690;2023-02-01T01:38:55;98347.00;;;2.50
71081;BMP180;58740;50.672;18.690;2023-02-01T01:41:31;98345.20;;;2.50
71081;BMP180;58740;50.672;18.690;2023-02-01T01:44:04;98350.20;;;2.60
71081;BMP180;58740;50.672;18.690;2023-02-01T01:46:36;98351.20;;;2.60
71081;BMP180;58740;50.672;18.690;2023-02-01T01:49:17;98358.40;;;2.60
71081;BMP180;58740;50.672;18.690;2023-02-01T01:51:52;98350.40;;;2.62
71081;BMP180;58740;50.672;18.690;2023-02-01T01:54:39;98364.60;;;2.68
71081;BMP180;58740;50.672;18.690;2023-02-01T01:57:32;98362.80;;;2.70
71081;BMP180;58740;50.672;18.690;2023-02-01T02:00:12;98373.00;;;2.70
71081;BMP180;58740;50.672;18.690;2023-02-01T02:02:44;98366.80;;;2.60
71081;BMP180;58740;50.672;18.690;2023-02-01T02:05:16;98373.40;;;2.60
71081;BMP180;58740;50.672;18.690;2023-02-01T02:07:48;98365.40;;;2.62
71081;BMP180;58740;50.672;18.690;2023-02-01T02:10:16;98361.20;;;2.70
71081;BMP180;58740;50.672;18.690;2023-02-01T02:12:50;98354.60;;;2.70
71081;BMP180;58740;50.672;18.690;2023-02-01T02:15:18;98357.80;;;2.70
71081;BMP180;58740;50.672;18.690;2023-02-01T02:18:08;98348.20;;;2.72
71081;BMP180;58740;50.672;18.690;2023-02-01T02:21:14;98354.80;;;2.78
71081;BMP180;58740;50.672;18.690;2023-02-01T02:24:28;98359.40;;;2.80
71081;BMP180;58740;50.672;18.690;2023-02-01T02:27:12;98365.40;;;2.76
71081;BMP180;58740;50.672;18.690;2023-02-01T02:36:22;98363.00;;;2.70
71081;BMP180;58740;50.672;18.690;2023-02-01T02:39:09;98375.20;;;2.70
71081;BMP180;58740;50.672;18.690;2023-02-01T02:41:50;98368.80;;;2.70
71081;BMP180;58740;50.672;18.690;2023-02-01T02:48:14;98371.20;;;2.80
71081;BMP180;58740;50.672;18.690;2023-02-01T02:50:49;98362.40;;;2.80
71081;BMP180;58740;50.672;18.690;2023-02-01T02:53:48;98359.60;;;2.78
71081;BMP180;58740;50.672;18.690;2023-02-01T02:56:53;98355.60;;;2.78
71081;BMP180;58740;50.672;18.690;2023-02-01T02:59:44;98362.00;;;2.80
71081;BMP180;58740;50.672;18.690;2023-02-01T03:02:33;98353.80;;;2.80
71081;BMP180;58740;50.672;18.690;2023-02-01T03:05:20;98356.40;;;2.80
71081;BMP180;58740;50.672;18.690;2023-02-01T03:08:13;98361.00;;;2.86
71081;BMP180;58740;50.672;18.690;2023-02-01T03:11:07;98361.40;;;2.90
71081;BMP180;58740;50.672;18.690;2023-02-01T03:13:52;98368.40;;;2.90
71081;BMP180;58740;50.672;18.690;2023-02-01T03:16:36;98367.40;;;2.80
71081;BMP180;58740;50.672;18.690;2023-02-01T03:19:19;98362.40;;;2.80
71081;BMP180;58740;50.672;18.690;2023-02-01T03:22:13;98354.80;;;2.80
71081;BMP180;58740;50.672;18.690;2023-02-01T03:24:46;98362.00;;;2.80
71081;BMP180;58740;50.672;18.690;2023-02-01T03:32:35;98371.60;;;2.80
71081;BMP180;58740;50.672;18.690;2023-02-01T03:36:15;98369.80;;;2.80
71081;BMP180;58740;50.672;18.690;2023-02-01T03:42:03;98385.80;;;2.70
71081;BMP180;58740;50.672;18.690;2023-02-01T03:44:39;98374.40;;;2.70
71081;BMP180;58740;50.672;18.690;2023-02-01T03:47:20;98378.20;;;2.70
71081;BMP180;58740;50.672;18.690;2023-02-01T03:49:58;98374.20;;;2.70
71081;BMP180;58740;50.672;18.690;2023-02-01T03:52:48;98376.80;;;2.70
71081;BMP180;58740;50.672;18.690;2023-02-01T03:55:23;98378.80;;;2.72
71081;BMP180;58740;50.672;18.690;2023-02-01T03:58:02;98374.80;;;2.80
71081;BMP180;58740;50.672;18.690;2023-02-01T04:00:31;98373.20;;;2.76
71081;BMP180;58740;50.672;18.690;2023-02-01T04:02:59;98369.40;;;2.72
71081;BMP180;58740;50.672;18.690;2023-02-01T04:05:27;98370.40;;;2.70
71081;BMP180;58740;50.672;18.690;2023-02-01T04:07:55;98372.60;;;2.70
71081;BMP180;58740;50.672;18.690;2023-02-01T04:10:22;98376.80;;;2.70
71081;BMP180;58740;50.672;18.690;2023-02-01T04:12:51;98370.00;;;2.70
71081;BMP180;58740;50.672;18.690;2023-02-01T04:15:19;98372.00;;;2.70
71081;BMP180;58740;50.672;18.690;2023-02-01T04:17:47;98369.60;;;2.70
71081;BMP180;58740;50.672;18.690;2023-02-01T04:20:15;98377.40;;;2.70
71081;BMP180;58740;50.672;18.690;2023-02-01T04:22:43;98382.60;;;2.76
71081;BMP180;58740;50.672;18.690;2023-02-01T04:25:11;98373.40;;;2.70
71081;BMP180;58740;50.672;18.690;2023-02-01T04:27:39;98371.60;;;2.70
71081;BMP180;58740;50.672;18.690;2023-02-01T04:30:10;98372.00;;;2.70
71081;BMP180;58740;50.672;18.690;2023-02-01T04:32:38;98368.60;;;2.70
71081;BMP180;58740;50.672;18.690;2023-02-01T04:35:07;98366.60;;;2.70
71081;BMP180;58740;50.672;18.690;2023-02-01T04:37:35;98361.40;;;2.70
71081;BMP180;58740;50.672;18.690;2023-02-01T04:40:05;98359.60;;;2.74
71081;BMP180;58740;50.672;18.690;2023-02-01T04:42:33;98354.80;;;2.74
71081;BMP180;58740;50.672;18.690;2023-02-01T04:45:01;98356.80;;;2.70
71081;BMP180;58740;50.672;18.690;2023-02-01T04:47:29;98358.60;;;2.70
71081;BMP180;58740;50.672;18.690;2023-02-01T04:49:57;98351.20;;;2.70
71081;BMP180;58740;50.672;18.690;2023-02-01T04:52:24;98354.40;;;2.70
71081;BMP180;58740;50.672;18.690;2023-02-01T04:54:52;98359.80;;;2.70
71081;BMP180;58740;50.672;18.690;2023-02-01T04:57:23;98357.20;;;2.70
71081;BMP180;58740;50.672;18.690;2023-02-01T04:59:51;98359.20;;;2.70
71081;BMP180;58740;50.672;18.690;2023-02-01T05:02:19;98355.20;;;2.70
71081;BMP180;58740;50.672;18.690;2023-02-01T05:04:47;98361.80;;;2.70
71081;BMP180;58740;50.672;18.690;2023-02-01T05:07:15;98355.20;;;2.70
71081;BMP180;58740;50.672;18.690;2023-02-01T05:09:42;98357.60;;;2.70
71081;BMP180;58740;50.672;18.690;2023-02-01T05:12:12;98345.20;;;2.70
71081;BMP180;58740;50.672;18.690;2023-02-01T05:14:59;98347.60;;;2.70
71081;BMP180;58740;50.672;18.690;2023-02-01T05:17:27;98337.80;;;2.60
71081;BMP180;58740;50.672;18.690;2023-02-01T05:19:55;98336.00;;;2.60
71081;BMP180;58740;50.672;18.690;2023-02-01T05:22:22;98334.40;;;2.60
71081;BMP180;58740;50.672;18.690;2023-02-01T05:24:50;98329.00;;;2.60
71081;BMP180;58740;50.672;18.690;2023-02-01T05:27:18;98330.00;;;2.60
71081;BMP180;58740;50.672;18.690;2023-02-01T05:29:46;98330.00;;;2.60
71081;BMP180;58740;50.672;18.690;2023-02-01T05:32:16;98321.20;;;2.60
71081;BMP180;58740;50.672;18.690;2023-02-01T05:34:49;98326.80;;;2.60
71081;BMP180;58740;50.672;18.690;2023-02-01T05:37:17;98331.80;;;2.60
71081;BMP180;58740;50.672;18.690;2023-02-01T05:39:45;98329.80;;;2.60
71081;BMP180;58740;50.672;18.690;2023-02-01T05:42:13;98328.60;;;2.60
71081;BMP180;58740;50.672;18.690;2023-02-01T05:44:40;98327.00;;;2.60
71081;BMP180;58740;50.672;18.690;2023-02-01T05:47:08;98327.00;;;2.60
71081;BMP180;58740;50.672;18.690;2023-02-01T05:49:36;98321.00;;;2.60
71081;BMP180;58740;50.672;18.690;2023-02-01T05:52:05;98326.00;;;2.60
71081;BMP180;58740;50.672;18.690;2023-02-01T05:54:32;98330.40;;;2.64
71081;BMP180;58740;50.672;18.690;2023-02-01T05:57:00;98327.40;;;2.70
71081;BMP180;58740;50.672;18.690;2023-02-01T05:59:28;98324.80;;;2.70
71081;BMP180;58740;50.672;18.690;2023-02-01T06:01:59;98324.20;;;2.70
71081;BMP180;58740;50.672;18.690;2023-02-01T06:04:26;98330.40;;;2.70
71081;BMP180;58740;50.672;18.690;2023-02-01T06:06:54;98332.00;;;2.70
71081;BMP180;58740;50.672;18.690;2023-02-01T06:09:22;98335.80;;;2.70
71081;BMP180;58740;50.672;18.690;2023-02-01T06:11:49;98338.60;;;2.70
71081;BMP180;58740;50.672;18.690;2023-02-01T06:14:17;98344.20;;;2.80
71081;BMP180;58740;50.672;18.690;2023-02-01T06:16:45;98341.80;;;2.80
71081;BMP180;58740;50.672;18.690;2023-02-01T06:19:14;98336.00;;;2.80
71081;BMP180;58740;50.672;18.690;2023-02-01T06:21:41;98338.60;;;2.80
71081;BMP180;58740;50.672;18.690;2023-02-01T06:24:09;98335.20;;;2.80
71081;BMP180;58740;50.672;18.690;2023-02-01T06:26:37;98331.60;;;2.80
71081;BMP180;58740;50.672;18.690;2023-02-01T06:29:09;98332.60;;;2.76
71081;BMP180;58740;50.672;18.690;2023-02-01T06:31:37;98330.60;;;2.80
71081;BMP180;58740;50.672;18.690;2023-02-01T06:34:05;98334.20;;;2.80
71081;BMP180;58740;50.672;18.690;2023-02-01T06:36:35;98334.80;;;2.80
71081;BMP180;58740;50.672;18.690;2023-02-01T06:39:03;98341.20;;;2.80
71081;BMP180;58740;50.672;18.690;2023-02-01T06:41:31;98339.00;;;2.86
71081;BMP180;58740;50.672;18.690;2023-02-01T06:43:58;98333.60;;;2.86
71081;BMP180;58740;50.672;18.690;2023-02-01T06:46:28;98331.00;;;2.88
71081;BMP180;58740;50.672;18.690;2023-02-01T06:48:56;98333.40;;;2.80
71081;BMP180;58740;50.672;18.690;2023-02-01T06:51:27;98335.80;;;2.80
71081;BMP180;58740;50.672;18.690;2023-02-01T06:53:56;98333.80;;;2.80
71081;BMP180;58740;50.672;18.690;2023-02-01T06:56:24;98333.40;;;2.86
71081;BMP180;58740;50.672;18.690;2023-02-01T06:58:53;98333.60;;;2.90
71081;BMP180;58740;50.672;18.690;2023-02-01T07:01:21;98326.00;;;2.90
71081;BMP180;58740;50.672;18.690;2023-02-01T07:03:50;98321.40;;;2.90
71081;BMP180;58740;50.672;18.690;2023-02-01T07:06:19;98324.40;;;2.90
71081;BMP180;58740;50.672;18.690;2023-02-01T07:08:47;98322.80;;;2.90
71081;BMP180;58740;50.672;18.690;2023-02-01T07:11:17;98332.80;;;2.90
71081;BMP180;58740;50.672;18.690;2023-02-01T07:13:45;98333.80;;;2.90
71081;BMP180;58740;50.672;18.690;2023-02-01T07:16:17;98332.60;;;2.90
71081;BMP180;58740;50.672;18.690;2023-02-01T07:18:46;98334.60;;;2.90
71081;BMP180;58740;50.672;18.690;2023-02-01T07:21:14;98339.20;;;2.90
71081;BMP180;58740;50.672;18.690;2023-02-01T07:23:45;98340.00;;;2.90
71081;BMP180;58740;50.672;18.690;2023-02-01T07:26:14;98338.20;;;2.90
71081;BMP180;58740;50.672;18.690;2023-02-01T07:28:42;98343.40;;;2.98
71081;BMP180;58740;50.672;18.690;2023-02-01T07:31:16;98344.20;;;3.00
71081;BMP180;58740;50.672;18.690;2023-02-01T07:33:48;98343.60;;;3.00
71081;BMP180;58740;50.672;18.690;2023-02-01T07:36:16;98347.40;;;3.00
71081;BMP180;58740;50.672;18.690;2023-02-01T07:38:46;98350.20;;;2.90
71081;BMP180;58740;50.672;18.690;2023-02-01T07:41:17;98347.20;;;2.90
71081;BMP180;58740;50.672;18.690;2023-02-01T07:43:45;98353.60;;;2.90
71081;BMP180;58740;50.672;18.690;2023-02-01T07:46:13;98347.20;;;2.96
71081;BMP180;58740;50.672;18.690;2023-02-01T07:48:42;98348.60;;;3.00
71081;BMP180;58740;50.672;18.690;2023-02-01T07:51:14;98340.80;;;3.00
71081;BMP180;58740;50.672;18.690;2023-02-01T07:53:43;98341.80;;;3.10
71081;BMP180;58740;50.672;18.690;2023-02-01T07:56:15;98340.40;;;3.10
71081;BMP180;58740;50.672;18.690;2023-02-01T07:58:51;98339.40;;;3.10
71081;BMP180;58740;50.672;18.690;2023-02-01T08:01:22;98335.00;;;3.10
71081;BMP180;58740;50.672;18.690;2023-02-01T08:03:57;98331.60;;;3.06
71081;BMP180;58740;50.672;18.690;2023-02-01T08:06:30;98330.00;;;3.10
71081;BMP180;58740;50.672;18.690;2023-02-01T08:08:58;98327.80;;;3.10
71081;BMP180;58740;50.672;18.690;2023-02-01T08:11:27;98321.80;;;3.10
71081;BMP180;58740;50.672;18.690;2023-02-01T08:13:55;98326.60;;;3.10
71081;BMP180;58740;50.672;18.690;2023-02-01T08:16:24;98327.60;;;3.16
71081;BMP180;58740;50.672;18.690;2023-02-01T08:18:53;98329.00;;;3.18
71081;BMP180;58740;50.672;18.690;2023-02-01T08:21:25;98333.80;;;3.18
71081;BMP180;58740;50.672;18.690;2023-02-01T08:23:53;98329.40;;;3.18
71081;BMP180;58740;50.672;18.690;2023-02-01T08:26:25;98336.60;;;3.20
71081;BMP180;58740;50.672;18.690;2023-02-01T08:29:00;98341.00;;;3.20
71081;BMP180;58740;50.672;18.690;2023-02-01T08:31:29;98338.40;;;3.20
71081;BMP180;58740;50.672;18.690;2023-02-01T08:34:03;98337.40;;;3.20
71081;BMP180;58740;50.672;18.690;2023-02-01T08:36:35;98339.00;;;3.28
71081;BMP180;58740;50.672;18.690;2023-02-01T08:39:05;98331.20;;;3.30
71081;BMP180;58740;50.672;18.690;2023-02-01T08:41:37;98334.20;;;3.30
71081;BMP180;58740;50.672;18.690;2023-02-01T08:44:05;98333.80;;;3.30
71081;BMP180;58740;50.672;18.690;2023-02-01T08:46:33;98335.20;;;3.34
71081;BMP180;58740;50.672;18.690;2023-02-01T08:49:00;98333.60;;;3.40
71081;BMP180;58740;50.672;18.690;2023-02-01T08:51:28;98338.00;;;3.32
71081;BMP180;58740;50.672;18.690;2023-02-01T08:53:56;98337.20;;;3.30
71081;BMP180;58740;50.672;18.690;2023-02-01T08:56:24;98344.40;;;3.32
71081;BMP180;58740;50.672;18.690;2023-02-01T08:58:51;98341.20;;;3.38
71081;BMP180;58740;50.672;18.690;2023-02-01T09:01:19;98337.00;;;3.40
71081;BMP180;58740;50.672;18.690;2023-02-01T09:03:47;98339.20;;;3.40
71081;BMP180;58740;50.672;18.690;2023-02-01T09:06:15;98340.40;;;3.36
71081;BMP180;58740;50.672;18.690;2023-02-01T09:08:46;98338.00;;;3.38
71081;BMP180;58740;50.672;18.690;2023-02-01T09:11:18;98339.00;;;3.32
71081;BMP180;58740;50.672;18.690;2023-02-01T09:13:48;98337.60;;;3.34
71081;BMP180;58740;50.672;18.690;2023-02-01T09:16:17;98329.60;;;3.30
71081;BMP180;58740;50.672;18.690;2023-02-01T09:18:44;98327.60;;;3.40
71081;BMP180;58740;50.672;18.690;2023-02-01T09:21:32;98328.20;;;3.40
71081;BMP180;58740;50.672;18.690;2023-02-01T09:24:01;98333.20;;;3.44
71081;BMP180;58740;50.672;18.690;2023-02-01T09:26:29;98325.40;;;3.50
71081;BMP180;58740;50.672;18.690;2023-02-01T09:29:00;98328.40;;;3.50
71081;BMP180;58740;50.672;18.690;2023-02-01T09:31:29;98326.20;;;3.60
71081;BMP180;58740;50.672;18.690;2023-02-01T09:33:58;98330.00;;;3.60
71081;BMP180;58740;50.672;18.690;2023-02-01T09:36:26;98321.00;;;3.60
71081;BMP180;58740;50.672;18.690;2023-02-01T09:38:58;98315.40;;;3.62
71081;BMP180;58740;50.672;18.690;2023-02-01T09:42:04;98319.60;;;3.70
71081;BMP180;58740;50.672;18.690;2023-02-01T09:44:53;98314.60;;;3.70
71081;BMP180;58740;50.672;18.690;2023-02-01T09:47:26;98315.40;;;3.80
71081;BMP180;58740;50.672;18.690;2023-02-01T09:50:05;98311.20;;;3.90
71081;BMP180;58740;50.672;18.690;2023-02-01T09:52:45;98308.60;;;3.90
71081;BMP180;58740;50.672;18.690;2023-02-01T09:55:39;98312.80;;;3.94
71081;BMP180;58740;50.672;18.690;2023-02-01T10:00:53;98307.40;;;4.00
71081;BMP180;58740;50.672;18.690;2023-02-01T10:03:27;98299.80;;;4.00
71081;BMP180;58740;50.672;18.690;2023-02-01T10:09:09;98298.40;;;3.90
71081;BMP180;58740;50.672;18.690;2023-02-01T10:18:20;98295.80;;;3.90
71081;BMP180;58740;50.672;18.690;2023-02-01T10:26:51;98304.40;;;3.90
71081;BMP180;58740;50.672;18.690;2023-02-01T10:29:25;98297.40;;;3.90
71081;BMP180;58740;50.672;18.690;2023-02-01T10:31:55;98304.20;;;3.90
71081;BMP180;58740;50.672;18.690;2023-02-01T10:34:34;98296.40;;;3.90
71081;BMP180;58740;50.672;18.690;2023-02-01T10:37:26;98289.40;;;3.90
71081;BMP180;58740;50.672;18.690;2023-02-01T10:39:58;98290.40;;;3.86
71081;BMP180;58740;50.672;18.690;2023-02-01T10:42:29;98279.20;;;3.86
71081;BMP180;58740;50.672;18.690;2023-02-01T10:45:02;98273.80;;;3.90
71081;BMP180;58740;50.672;18.690;2023-02-01T10:47:30;98281.80;;;3.90
71081;BMP180;58740;50.672;18.690;2023-02-01T10:50:16;98287.20;;;3.90
71081;BMP180;58740;50.672;18.690;2023-02-01T10:52:52;98272.40;;;3.90
71081;BMP180;58740;50.672;18.690;2023-02-01T10:55:46;98266.00;;;3.92
71081;BMP180;58740;50.672;18.690;2023-02-01T10:58:31;98272.80;;;4.00
71081;BMP180;58740;50.672;18.690;2023-02-01T11:01:08;98268.40;;;4.00
71081;BMP180;58740;50.672;18.690;2023-02-01T11:03:52;98279.80;;;4.00
71081;BMP180;58740;50.672;18.690;2023-02-01T11:06:34;98279.00;;;4.00
71081;BMP180;58740;50.672;18.690;2023-02-01T11:11:56;98279.00;;;4.00
71081;BMP180;58740;50.672;18.690;2023-02-01T11:17:00;98275.60;;;3.90
71081;BMP180;58740;50.672;18.690;2023-02-01T11:19:28;98267.20;;;3.92
71081;BMP180;58740;50.672;18.690;2023-02-01T11:22:00;98266.60;;;3.92
71081;BMP180;58740;50.672;18.690;2023-02-01T11:24:33;98258.80;;;4.00
71081;BMP180;58740;50.672;18.690;2023-02-01T11:27:06;98258.80;;;4.00
71081;BMP180;58740;50.672;18.690;2023-02-01T11:29:56;98253.60;;;4.10
71081;BMP180;58740;50.672;18.690;2023-02-01T11:32:26;98248.00;;;4.10
71081;BMP180;58740;50.672;18.690;2023-02-01T11:35:05;98246.00;;;4.14
71081;BMP180;58740;50.672;18.690;2023-02-01T11:37:38;98248.40;;;4.20
71081;BMP180;58740;50.672;18.690;2023-02-01T11:43:01;98239.80;;;4.20
71081;BMP180;58740;50.672;18.690;2023-02-01T11:45:34;98235.40;;;4.20
71081;BMP180;58740;50.672;18.690;2023-02-01T11:48:15;98225.60;;;4.20
71081;BMP180;58740;50.672;18.690;2023-02-01T11:54:34;98215.80;;;4.30
71081;BMP180;58740;50.672;18.690;2023-02-01T11:57:18;98214.40;;;4.30
71081;BMP180;58740;50.672;18.690;2023-02-01T12:14:31;98194.00;;;4.30
71081;BMP180;58740;50.672;18.690;2023-02-01T12:26:22;98175.60;;;4.30
71081;BMP180;58740;50.672;18.690;2023-02-01T12:32:11;98169.80;;;4.30
71081;BMP180;58740;50.672;18.690;2023-02-01T12:43:38;98136.20;;;4.30
71081;BMP180;58740;50.672;18.690;2023-02-01T12:46:51;98132.60;;;4.30
71081;BMP180;58740;50.672;18.690;2023-02-01T12:49:20;98129.80;;;4.30
71081;BMP180;58740;50.672;18.690;2023-02-01T12:52:04;98134.60;;;4.30
71081;BMP180;58740;50.672;18.690;2023-02-01T12:54:42;98126.40;;;4.40
71081;BMP180;58740;50.672;18.690;2023-02-01T12:57:26;98116.40;;;4.40
71081;BMP180;58740;50.672;18.690;2023-02-01T13:00:27;98121.80;;;4.40
71081;BMP180;58740;50.672;18.690;2023-02-01T13:06:00;98128.40;;;4.30
71081;BMP180;58740;50.672;18.690;2023-02-01T13:08:54;98128.60;;;4.20
71081;BMP180;58740;50.672;18.690;2023-02-01T13:11:29;98136.40;;;4.10
71081;BMP180;58740;50.672;18.690;2023-02-01T13:14:30;98131.20;;;4.10
71081;BMP180;58740;50.672;18.690;2023-02-01T13:19:59;98130.60;;;4.00
71081;BMP180;58740;50.672;18.690;2023-02-01T13:22:35;98133.20;;;4.00
71081;BMP180;58740;50.672;18.690;2023-02-01T13:27:59;98138.80;;;3.92
71081;BMP180;58740;50.672;18.690;2023-02-01T13:31:15;98143.40;;;3.90
71081;BMP180;58740;50.672;18.690;2023-02-01T13:33:59;98137.60;;;3.90
71081;BMP180;58740;50.672;18.690;2023-02-01T13:42:48;98146.20;;;3.90
71081;BMP180;58740;50.672;18.690;2023-02-01T13:45:23;98143.60;;;3.90
71081;BMP180;58740;50.672;18.690;2023-02-01T13:47:56;98147.60;;;3.86
71081;BMP180;58740;50.672;18.690;2023-02-01T13:50:40;98145.40;;;3.80
71081;BMP180;58740;50.672;18.690;2023-02-01T13:55:44;98152.20;;;3.80
71081;BMP180;58740;50.672;18.690;2023-02-01T13:58:19;98148.60;;;3.74
71081;BMP180;58740;50.672;18.690;2023-02-01T14:00:50;98143.60;;;3.70
71081;BMP180;58740;50.672;18.690;2023-02-01T14:03:43;98148.00;;;3.70
71081;BMP180;58740;50.672;18.690;2023-02-01T14:06:40;98140.00;;;3.70
71081;BMP180;58740;50.672;18.690;2023-02-01T14:15:23;98146.00;;;3.50
71081;BMP180;58740;50.672;18.690;2023-02-01T14:17:54;98147.20;;;3.50
71081;BMP180;58740;50.672;18.690;2023-02-01T14:20:46;98144.00;;;3.50
71081;BMP180;58740;50.672;18.690;2023-02-01T14:23:20;98145.60;;;3.50
71081;BMP180;58740;50.672;18.690;2023-02-01T14:26:04;98146.40;;;3.50
71081;BMP180;58740;50.672;18.690;2023-02-01T14:28:55;98156.20;;;3.56
71081;BMP180;58740;50.672;18.690;2023-02-01T14:42:26;98155.20;;;3.50
71081;BMP180;58740;50.672;18.690;2023-02-01T14:50:39;98174.00;;;3.54
71081;BMP180;58740;50.672;18.690;2023-02-01T14:56:20;98174.80;;;3.60
71081;BMP180;58740;50.672;18.690;2023-02-01T14:59:00;98170.00;;;3.60
71081;BMP180;58740;50.672;18.690;2023-02-01T15:01:37;98176.00;;;3.60
71081;BMP180;58740;50.672;18.690;2023-02-01T15:04:17;98185.40;;;3.60
71081;BMP180;58740;50.672;18.690;2023-02-01T15:06:54;98183.40;;;3.60
71081;BMP180;58740;50.672;18.690;2023-02-01T15:09:35;98193.60;;;3.60
71081;BMP180;58740;50.672;18.690;2023-02-01T15:15:16;98186.00;;;3.64
71081;BMP180;58740;50.672;18.690;2023-02-01T15:17:52;98189.00;;;3.68
71081;BMP180;58740;50.672;18.690;2023-02-01T15:20:27;98201.60;;;3.70
71081;BMP180;58740;50.672;18.690;2023-02-01T15:23:03;98189.80;;;3.70
71081;BMP180;58740;50.672;18.690;2023-02-01T15:25:36;98194.60;;;3.64
71081;BMP180;58740;50.672;18.690;2023-02-01T15:28:13;98187.40;;;3.60
71081;BMP180;58740;50.672;18.690;2023-02-01T15:31:04;98190.80;;;3.60
71081;BMP180;58740;50.672;18.690;2023-02-01T15:33:35;98191.40;;;3.60
71081;BMP180;58740;50.672;18.690;2023-02-01T15:36:11;98191.00;;;3.68
71081;BMP180;58740;50.672;18.690;2023-02-01T15:38:44;98200.40;;;3.70
71081;BMP180;58740;50.672;18.690;2023-02-01T15:41:20;98193.40;;;3.70
71081;BMP180;58740;50.672;18.690;2023-02-01T15:46:38;98204.00;;;3.80
71081;BMP180;58740;50.672;18.690;2023-02-01T15:49:31;98207.60;;;3.80
71081;BMP180;58740;50.672;18.690;2023-02-01T15:52:02;98208.20;;;3.78
71081;BMP180;58740;50.672;18.690;2023-02-01T15:54:46;98212.00;;;3.72
71081;BMP180;58740;50.672;18.690;2023-02-01T15:57:29;98213.80;;;3.72
71081;BMP180;58740;50.672;18.690;2023-02-01T16:00:25;98217.40;;;3.80
71081;BMP180;58740;50.672;18.690;2023-02-01T16:03:04;98228.20;;;3.80
71081;BMP180;58740;50.672;18.690;2023-02-01T16:05:40;98223.20;;;3.80
71081;BMP180;58740;50.672;18.690;2023-02-01T16:08:19;98228.20;;;3.80
71081;BMP180;58740;50.672;18.690;2023-02-01T16:11:19;98222.00;;;3.80
71081;BMP180;58740;50.672;18.690;2023-02-01T16:13:40;98226.40;;;3.80
71081;BMP180;58740;50.672;18.690;2023-02-01T16:16:09;98227.40;;;3.80
71081;BMP180;58740;50.672;18.690;2023-02-01T16:18:46;98233.60;;;3.80
71081;BMP180;58740;50.672;18.690;2023-02-01T16:21:22;98230.00;;;3.78
71081;BMP180;58740;50.672;18.690;2023-02-01T16:23:52;98233.40;;;3.80
71081;BMP180;58740;50.672;18.690;2023-02-01T16:26:20;98231.60;;;3.80
71081;BMP180;58740;50.672;18.690;2023-02-01T16:28:48;98219.80;;;3.80
71081;BMP180;58740;50.672;18.690;2023-02-01T16:31:28;98227.80;;;3.80
71081;BMP180;58740;50.672;18.690;2023-02-01T16:33:57;98237.20;;;3.80
71081;BMP180;58740;50.672;18.690;2023-02-01T16:36:25;98237.00;;;3.80
71081;BMP180;58740;50.672;18.690;2023-02-01T16:38:55;98239.40;;;3.80
71081;BMP180;58740;50.672;18.690;2023-02-01T16:41:24;98243.60;;;3.80
71081;BMP180;58740;50.672;18.690;2023-02-01T16:43:54;98238.20;;;3.78
71081;BMP180;58740;50.672;18.690;2023-02-01T16:46:26;98249.60;;;3.78
71081;BMP180;58740;50.672;18.690;2023-02-01T16:48:58;98251.60;;;3.80
71081;BMP180;58740;50.672;18.690;2023-02-01T16:51:30;98249.00;;;3.80
71081;BMP180;58740;50.672;18.690;2023-02-01T16:54:00;98248.60;;;3.80
71081;BMP180;58740;50.672;18.690;2023-02-01T16:56:32;98245.20;;;3.80
71081;BMP180;58740;50.672;18.690;2023-02-01T16:59:01;98249.40;;;3.80
71081;BMP180;58740;50.672;18.690;2023-02-01T17:01:31;98244.80;;;3.78
71081;BMP180;58740;50.672;18.690;2023-02-01T17:03:59;98245.80;;;3.70
71081;BMP180;58740;50.672;18.690;2023-02-01T17:06:27;98245.20;;;3.70